createdAt,value
2017-04-23T00:00:13.095Z,958.87
2017-04-23T00:01:12.896Z,958.92
2017-04-23T00:02:12.989Z,958.90
2017-04-23T00:03:12.969Z,958.85
2017-04-23T00:04:12.844Z,958.82
2017-04-23T00:05:11.725Z,958.87
2017-04-23T00:06:12.806Z,958.84
2017-04-23T00:07:12.446Z,958.86
2017-04-23T00:08:13.022Z,958.86
2017-04-23T00:09:12.043Z,958.84
2017-04-23T00:10:12.227Z,958.84
2017-04-23T00:11:12.805Z,958.81
2017-04-23T00:12:12.617Z,958.79
2017-04-23T00:13:14.242Z,958.76
2017-04-23T00:14:11.311Z,958.75
2017-04-23T00:15:13.628Z,958.80
2017-04-23T00:16:13.596Z,958.81
2017-04-23T00:17:13.387Z,958.82
2017-04-23T00:18:12.677Z,958.81
2017-04-23T00:19:13.706Z,958.79
2017-04-23T00:20:13.740Z,958.83
2017-04-23T00:21:13.459Z,958.80
2017-04-23T00:22:13.095Z,958.79
2017-04-23T00:23:12.243Z,958.81
2017-04-23T00:24:12.497Z,958.81
2017-04-23T00:25:12.476Z,958.81
2017-04-23T00:26:12.468Z,958.76
2017-04-23T00:27:14.119Z,958.81
2017-04-23T00:28:12.827Z,958.73
2017-04-23T00:29:11.776Z,958.77
2017-04-23T00:30:12.538Z,958.81
2017-04-23T00:31:12.991Z,958.79
2017-04-23T00:32:12.175Z,958.73
2017-04-23T00:33:11.400Z,958.72
2017-04-23T00:34:13.255Z,958.76
2017-04-23T00:35:11.065Z,958.77
2017-04-23T00:36:12.261Z,958.76
2017-04-23T00:37:12.787Z,958.72
2017-04-23T00:38:10.510Z,958.78
2017-04-23T00:39:14.109Z,958.75
2017-04-23T00:40:12.643Z,958.74
2017-04-23T00:41:13.385Z,958.77
2017-04-23T00:42:12.990Z,958.75
2017-04-23T00:43:11.942Z,958.71
2017-04-23T00:44:13.289Z,958.73
2017-04-23T00:45:12.240Z,958.72
2017-04-23T00:46:12.924Z,958.73
2017-04-23T00:47:12.251Z,958.72
2017-04-23T00:48:12.287Z,958.78
2017-04-23T00:49:13.827Z,958.76
2017-04-23T00:50:12.426Z,958.77
2017-04-23T00:51:14.626Z,958.69
2017-04-23T00:52:13.403Z,958.69
2017-04-23T00:53:12.920Z,958.72
2017-04-23T00:54:12.029Z,958.65
2017-04-23T00:55:13.800Z,958.66
2017-04-23T00:56:12.465Z,958.63
2017-04-23T00:57:12.602Z,958.60
2017-04-23T00:58:12.619Z,958.66
2017-04-23T00:59:13.326Z,958.68
2017-04-23T01:00:13.000Z,958.66
2017-04-23T01:01:13.313Z,958.67
2017-04-23T01:02:16.625Z,958.64
2017-04-23T01:03:11.916Z,958.63
2017-04-23T01:04:13.464Z,958.62
2017-04-23T01:05:12.566Z,958.57
2017-04-23T01:06:15.726Z,958.57
2017-04-23T01:07:15.586Z,958.61
2017-04-23T01:08:14.369Z,958.61
2017-04-23T01:09:12.967Z,958.61
2017-04-23T01:10:12.870Z,958.65
2017-04-23T01:11:14.838Z,958.62
2017-04-23T01:12:12.722Z,958.59
2017-04-23T01:13:12.557Z,958.65
2017-04-23T01:14:13.969Z,958.61
2017-04-23T01:15:10.355Z,958.61
2017-04-23T01:16:13.348Z,958.59
2017-04-23T01:17:13.355Z,958.61
2017-04-23T01:18:12.944Z,958.58
2017-04-23T01:19:12.819Z,958.60
2017-04-23T01:20:13.106Z,958.61
2017-04-23T01:21:12.864Z,958.57
2017-04-23T01:22:12.480Z,958.55
2017-04-23T01:23:13.289Z,958.57
2017-04-23T01:24:12.283Z,958.58
2017-04-23T01:25:14.454Z,958.62
2017-04-23T01:26:13.266Z,958.59
2017-04-23T01:27:13.397Z,958.62
2017-04-23T01:28:13.609Z,958.55
2017-04-23T01:29:09.952Z,958.55
2017-04-23T01:30:12.396Z,958.56
2017-04-23T01:31:13.844Z,958.60
2017-04-23T01:32:09.629Z,958.64
2017-04-23T01:33:13.573Z,958.61
2017-04-23T01:34:14.064Z,958.59
2017-04-23T01:35:12.224Z,958.54
2017-04-23T01:36:13.089Z,958.61
2017-04-23T01:37:14.257Z,958.63
2017-04-23T01:38:12.848Z,958.65
2017-04-23T01:39:10.862Z,958.66
2017-04-23T01:40:12.766Z,958.67
2017-04-23T01:41:12.394Z,958.68
2017-04-23T01:42:13.438Z,958.65
2017-04-23T01:43:12.586Z,958.65
2017-04-23T01:44:13.145Z,958.65
2017-04-23T01:45:13.035Z,958.63
2017-04-23T01:46:12.370Z,958.67
2017-04-23T01:47:12.584Z,958.62
2017-04-23T01:48:13.560Z,958.65
2017-04-23T01:49:13.403Z,958.66
2017-04-23T01:50:14.261Z,958.70
2017-04-23T01:51:12.981Z,958.65
2017-04-23T01:52:12.758Z,958.72
2017-04-23T01:53:10.316Z,958.68
2017-04-23T01:54:12.968Z,958.69
2017-04-23T01:55:12.622Z,958.69
2017-04-23T01:56:14.531Z,958.71
2017-04-23T01:57:14.073Z,958.71
2017-04-23T01:58:12.774Z,958.75
2017-04-23T01:59:13.014Z,958.76
2017-04-23T02:00:12.028Z,958.81
2017-04-23T02:01:12.649Z,958.77
2017-04-23T02:02:14.604Z,958.77
2017-04-23T02:03:13.526Z,958.79
2017-04-23T02:04:13.294Z,958.79
2017-04-23T02:05:12.997Z,958.78
2017-04-23T02:06:12.063Z,958.82
2017-04-23T02:07:11.039Z,958.77
2017-04-23T02:08:12.010Z,958.81
2017-04-23T02:09:12.999Z,958.76
2017-04-23T02:10:11.946Z,958.81
2017-04-23T02:11:13.317Z,958.75
2017-04-23T02:12:15.050Z,958.73
2017-04-23T02:13:13.060Z,958.72
2017-04-23T02:14:12.538Z,958.74
2017-04-23T02:15:13.246Z,958.73
2017-04-23T02:16:11.325Z,958.72
2017-04-23T02:17:13.326Z,958.74
2017-04-23T02:18:13.707Z,958.71
2017-04-23T02:19:13.525Z,958.73
2017-04-23T02:20:13.606Z,958.72
2017-04-23T02:21:12.989Z,958.69
2017-04-23T02:22:12.184Z,958.68
2017-04-23T02:23:13.054Z,958.66
2017-04-23T02:24:13.270Z,958.65
2017-04-23T02:25:12.427Z,958.68
2017-04-23T02:26:14.954Z,958.67
2017-04-23T02:27:12.652Z,958.68
2017-04-23T02:28:13.506Z,958.70
2017-04-23T02:29:14.253Z,958.75
2017-04-23T02:30:13.273Z,958.71
2017-04-23T02:31:12.228Z,958.71
2017-04-23T02:32:12.391Z,958.73
2017-04-23T02:33:13.469Z,958.75
2017-04-23T02:34:12.412Z,958.73
2017-04-23T02:35:12.573Z,958.74
2017-04-23T02:36:13.678Z,958.76
2017-04-23T02:37:14.276Z,958.77
2017-04-23T02:38:12.217Z,958.79
2017-04-23T02:39:14.130Z,958.77
2017-04-23T02:40:12.469Z,958.77
2017-04-23T02:41:13.598Z,958.79
2017-04-23T02:42:13.581Z,958.73
2017-04-23T02:43:13.395Z,958.75
2017-04-23T02:44:12.328Z,958.72
2017-04-23T02:45:09.520Z,958.72
2017-04-23T02:46:13.553Z,958.75
2017-04-23T02:47:14.440Z,958.76
2017-04-23T02:48:13.034Z,958.79
2017-04-23T02:49:12.233Z,958.78
2017-04-23T02:50:13.424Z,958.76
2017-04-23T02:51:12.588Z,958.78
2017-04-23T02:52:14.170Z,958.77
2017-04-23T02:53:13.906Z,958.76
2017-04-23T02:54:12.436Z,958.75
2017-04-23T02:55:13.513Z,958.73
2017-04-23T02:56:12.972Z,958.72
2017-04-23T02:57:12.743Z,958.74
2017-04-23T02:58:11.964Z,958.73
2017-04-23T02:59:12.997Z,958.75
2017-04-23T03:00:12.201Z,958.74
2017-04-23T03:01:12.228Z,958.71
2017-04-23T03:02:12.349Z,958.72
2017-04-23T03:03:12.851Z,958.72
2017-04-23T03:04:11.828Z,958.75
2017-04-23T03:05:13.337Z,958.71
2017-04-23T03:06:13.183Z,958.73
2017-04-23T03:07:13.055Z,958.77
2017-04-23T03:08:12.183Z,958.78
2017-04-23T03:09:14.187Z,958.84
2017-04-23T03:10:12.991Z,958.80
2017-04-23T03:11:12.764Z,958.85
2017-04-23T03:12:11.928Z,958.84
2017-04-23T03:13:12.557Z,958.82
2017-04-23T03:14:13.876Z,958.84
2017-04-23T03:15:10.978Z,958.83
2017-04-23T03:16:13.586Z,958.86
2017-04-23T03:17:11.324Z,958.87
2017-04-23T03:18:12.811Z,958.86
2017-04-23T03:19:14.321Z,958.88
2017-04-23T03:20:12.996Z,958.86
2017-04-23T03:21:14.716Z,958.86
2017-04-23T03:22:14.855Z,958.82
2017-04-23T03:23:12.601Z,958.82
2017-04-23T03:24:11.347Z,958.81
2017-04-23T03:25:12.827Z,958.80
2017-04-23T03:26:10.235Z,958.78
2017-04-23T03:27:12.889Z,958.81
2017-04-23T03:28:12.003Z,958.81
2017-04-23T03:29:14.020Z,958.84
2017-04-23T03:30:12.213Z,958.81
2017-04-23T03:31:12.228Z,958.84
2017-04-23T03:32:12.406Z,958.84
2017-04-23T03:33:15.697Z,958.83
2017-04-23T03:34:13.717Z,958.81
2017-04-23T03:35:13.230Z,958.80
2017-04-23T03:36:12.252Z,958.80
2017-04-23T03:37:13.411Z,958.77
2017-04-23T03:38:12.406Z,958.74
2017-04-23T03:39:12.533Z,958.78
2017-04-23T03:40:13.118Z,958.81
2017-04-23T03:41:11.010Z,958.79
2017-04-23T03:42:12.978Z,958.81
2017-04-23T03:43:12.815Z,958.78
2017-04-23T03:44:13.137Z,958.83
2017-04-23T03:45:12.925Z,958.80
2017-04-23T03:46:10.753Z,958.78
2017-04-23T03:47:13.503Z,958.79
2017-04-23T03:48:13.025Z,958.73
2017-04-23T03:49:12.469Z,958.75
2017-04-23T03:50:12.956Z,958.78
2017-04-23T03:51:11.958Z,958.76
2017-04-23T03:52:12.619Z,958.79
2017-04-23T03:53:13.314Z,958.77
2017-04-23T03:54:12.386Z,958.79
2017-04-23T03:55:13.516Z,958.78
2017-04-23T03:56:14.005Z,958.77
2017-04-23T03:57:12.861Z,958.76
2017-04-23T03:58:12.581Z,958.77
2017-04-23T03:59:12.814Z,958.78
2017-04-23T04:00:11.959Z,958.79
2017-04-23T04:01:12.635Z,958.81
2017-04-23T04:02:12.682Z,958.80
2017-04-23T04:03:13.945Z,958.81
2017-04-23T04:04:12.056Z,958.84
2017-04-23T04:05:13.939Z,958.84
2017-04-23T04:06:12.503Z,958.85
2017-04-23T04:07:12.944Z,958.85
2017-04-23T04:08:13.554Z,958.88
2017-04-23T04:09:13.212Z,958.85
2017-04-23T04:10:13.860Z,958.89
2017-04-23T04:11:12.026Z,958.88
2017-04-23T04:12:12.220Z,958.89
2017-04-23T04:13:12.308Z,958.93
2017-04-23T04:14:14.071Z,958.90
2017-04-23T04:15:12.067Z,958.92
2017-04-23T04:16:12.826Z,958.94
2017-04-23T04:17:12.790Z,958.98
2017-04-23T04:18:12.589Z,958.95
2017-04-23T04:19:13.853Z,958.98
2017-04-23T04:20:13.613Z,958.97
2017-04-23T04:21:12.753Z,959.00
2017-04-23T04:22:13.639Z,958.99
2017-04-23T04:23:13.634Z,958.99
2017-04-23T04:24:14.336Z,958.98
2017-04-23T04:25:17.140Z,959.03
2017-04-23T04:26:13.294Z,959.08
2017-04-23T04:27:14.261Z,959.08
2017-04-23T04:28:12.227Z,959.08
2017-04-23T04:29:12.228Z,959.08
2017-04-23T04:30:14.933Z,959.12
2017-04-23T04:31:13.655Z,959.08
2017-04-23T04:32:13.551Z,959.07
2017-04-23T04:33:13.994Z,959.07
2017-04-23T04:34:12.784Z,959.08
2017-04-23T04:35:11.815Z,959.08
2017-04-23T04:36:11.970Z,959.12
2017-04-23T04:37:12.910Z,959.15
2017-04-23T04:38:13.315Z,959.16
2017-04-23T04:39:12.304Z,959.17
2017-04-23T04:40:11.031Z,959.17
2017-04-23T04:41:12.779Z,959.15
2017-04-23T04:42:13.847Z,959.14
2017-04-23T04:43:13.757Z,959.14
2017-04-23T04:44:13.583Z,959.14
2017-04-23T04:45:12.616Z,959.14
2017-04-23T04:46:12.788Z,959.15
2017-04-23T04:47:10.711Z,959.19
2017-04-23T04:48:12.285Z,959.18
2017-04-23T04:49:12.335Z,959.16
2017-04-23T04:50:18.603Z,959.22
2017-04-23T04:51:12.614Z,959.19
2017-04-23T04:52:13.348Z,959.23
2017-04-23T04:53:12.624Z,959.17
2017-04-23T04:54:12.909Z,959.19
2017-04-23T04:55:12.539Z,959.20
2017-04-23T04:56:12.592Z,959.23
2017-04-23T04:57:13.297Z,959.20
2017-04-23T04:58:12.537Z,959.23
2017-04-23T04:59:10.544Z,959.24
2017-04-23T05:00:10.152Z,959.30
2017-04-23T05:01:12.351Z,959.23
2017-04-23T05:02:12.327Z,959.29
2017-04-23T05:03:12.406Z,959.28
2017-04-23T05:04:13.095Z,959.31
2017-04-23T05:05:12.175Z,959.31
2017-04-23T05:06:12.843Z,959.40
2017-04-23T05:07:11.979Z,959.35
2017-04-23T05:08:12.219Z,959.36
2017-04-23T05:09:13.000Z,959.35
2017-04-23T05:10:11.962Z,959.40
2017-04-23T05:11:12.338Z,959.34
2017-04-23T05:12:13.418Z,959.36
2017-04-23T05:13:12.401Z,959.39
2017-04-23T05:14:12.679Z,959.40
2017-04-23T05:15:13.641Z,959.41
2017-04-23T05:16:13.547Z,959.38
2017-04-23T05:17:14.256Z,959.41
2017-04-23T05:18:13.999Z,959.48
2017-04-23T05:19:12.701Z,959.40
2017-04-23T05:20:14.019Z,959.39
2017-04-23T05:21:12.118Z,959.41
2017-04-23T05:22:12.045Z,959.40
2017-04-23T05:23:14.956Z,959.43
2017-04-23T05:24:13.703Z,959.46
2017-04-23T05:25:13.169Z,959.47
2017-04-23T05:26:13.177Z,959.44
2017-04-23T05:27:13.725Z,959.43
2017-04-23T05:28:13.717Z,959.47
2017-04-23T05:29:13.579Z,959.47
2017-04-23T05:30:12.994Z,959.45
2017-04-23T05:31:12.775Z,959.45
2017-04-23T05:32:12.569Z,959.43
2017-04-23T05:33:13.814Z,959.45
2017-04-23T05:34:11.839Z,959.47
2017-04-23T05:35:11.917Z,959.48
2017-04-23T05:36:13.053Z,959.50
2017-04-23T05:37:14.032Z,959.47
2017-04-23T05:38:11.176Z,959.51
2017-04-23T05:39:11.441Z,959.53
2017-04-23T05:40:13.109Z,959.62
2017-04-23T05:41:13.852Z,959.66
2017-04-23T05:42:10.848Z,959.59
2017-04-23T05:43:12.731Z,959.60
2017-04-23T05:44:11.854Z,959.62
2017-04-23T05:45:11.850Z,959.61
2017-04-23T05:46:14.903Z,959.63
2017-04-23T05:47:12.778Z,959.63
2017-04-23T05:48:12.443Z,959.65
2017-04-23T05:49:12.643Z,959.66
2017-04-23T05:50:13.923Z,959.67
2017-04-23T05:51:12.484Z,959.71
2017-04-23T05:52:12.592Z,959.73
2017-04-23T05:53:13.624Z,959.73
2017-04-23T05:54:12.628Z,959.73
2017-04-23T05:55:12.791Z,959.75
2017-04-23T05:56:12.232Z,959.80
2017-04-23T05:57:12.998Z,959.73
2017-04-23T05:58:12.276Z,959.76
2017-04-23T05:59:13.747Z,959.74
2017-04-23T06:00:12.996Z,959.84
2017-04-23T06:01:12.654Z,959.82
2017-04-23T06:02:13.250Z,959.82
2017-04-23T06:03:12.800Z,959.78
2017-04-23T06:04:12.520Z,959.81
2017-04-23T06:05:14.104Z,959.78
2017-04-23T06:06:11.100Z,959.78
2017-04-23T06:07:12.967Z,959.80
2017-04-23T06:08:12.107Z,959.78
2017-04-23T06:09:11.102Z,959.82
2017-04-23T06:10:13.098Z,959.85
2017-04-23T06:11:12.022Z,959.81
2017-04-23T06:12:12.753Z,959.79
2017-04-23T06:13:11.783Z,959.78
2017-04-23T06:14:13.536Z,959.74
2017-04-23T06:15:10.539Z,959.81
2017-04-23T06:16:11.903Z,959.84
2017-04-23T06:17:13.973Z,959.87
2017-04-23T06:18:12.753Z,959.88
2017-04-23T06:19:12.805Z,959.84
2017-04-23T06:20:13.610Z,959.84
2017-04-23T06:21:11.739Z,959.88
2017-04-23T06:22:12.742Z,959.91
2017-04-23T06:23:12.596Z,959.90
2017-04-23T06:24:13.449Z,959.90
2017-04-23T06:25:12.767Z,959.91
2017-04-23T06:26:11.674Z,959.92
2017-04-23T06:27:12.746Z,959.96
2017-04-23T06:28:12.792Z,959.96
2017-04-23T06:29:11.880Z,959.99
2017-04-23T06:30:12.432Z,959.92
2017-04-23T06:31:14.323Z,959.94
2017-04-23T06:32:12.536Z,959.89
2017-04-23T06:33:11.198Z,959.90
2017-04-23T06:34:12.653Z,959.93
2017-04-23T06:35:10.964Z,959.91
2017-04-23T06:36:12.181Z,959.94
2017-04-23T06:37:09.967Z,959.90
2017-04-23T06:38:12.994Z,959.95
2017-04-23T06:39:22.999Z,959.93
2017-04-23T06:40:12.193Z,959.94
2017-04-23T06:41:13.447Z,959.95
2017-04-23T06:42:13.204Z,959.91
2017-04-23T06:43:10.502Z,959.99
2017-04-23T06:44:11.929Z,959.99
2017-04-23T06:45:13.818Z,959.96
2017-04-23T06:46:12.649Z,959.99
2017-04-23T06:47:12.920Z,959.96
2017-04-23T06:48:13.751Z,959.96
2017-04-23T06:49:12.390Z,959.97
2017-04-23T06:50:12.979Z,960.01
2017-04-23T06:51:14.085Z,959.99
2017-04-23T06:52:12.252Z,960.00
2017-04-23T06:53:13.037Z,959.98
2017-04-23T06:54:12.082Z,959.99
2017-04-23T06:55:13.045Z,960.01
2017-04-23T06:56:12.052Z,959.97
2017-04-23T06:57:13.859Z,959.98
2017-04-23T06:58:12.487Z,959.98
2017-04-23T06:59:12.628Z,959.96
2017-04-23T07:00:13.301Z,959.98
2017-04-23T07:01:12.947Z,959.98
2017-04-23T07:02:12.568Z,959.94
2017-04-23T07:03:13.153Z,959.94
2017-04-23T07:04:10.907Z,959.97
2017-04-23T07:05:12.228Z,959.97
2017-04-23T07:06:12.323Z,959.96
2017-04-23T07:07:15.998Z,959.91
2017-04-23T07:08:11.840Z,959.94
2017-04-23T07:09:12.615Z,959.93
2017-04-23T07:10:13.238Z,959.94
2017-04-23T07:11:12.229Z,959.93
2017-04-23T07:12:12.226Z,959.92
2017-04-23T07:13:12.959Z,959.95
2017-04-23T07:14:12.767Z,959.96
2017-04-23T07:15:11.687Z,959.92
2017-04-23T07:16:12.750Z,959.97
2017-04-23T07:17:12.682Z,959.98
2017-04-23T07:18:13.200Z,959.96
2017-04-23T07:19:12.869Z,959.98
2017-04-23T07:20:11.658Z,959.98
2017-04-23T07:21:13.294Z,960.05
2017-04-23T07:22:10.389Z,960.00
2017-04-23T07:23:13.015Z,960.01
2017-04-23T07:24:12.743Z,959.98
2017-04-23T07:25:13.571Z,959.96
2017-04-23T07:26:12.572Z,959.97
2017-04-23T07:27:14.756Z,959.97
2017-04-23T07:28:10.748Z,959.95
2017-04-23T07:29:12.412Z,959.93
2017-04-23T07:30:11.288Z,959.92
2017-04-23T07:31:11.173Z,959.98
2017-04-23T07:32:12.980Z,959.94
2017-04-23T07:33:12.148Z,959.98
2017-04-23T07:34:12.240Z,959.96
2017-04-23T07:35:12.999Z,960.00
2017-04-23T07:36:12.608Z,959.94
2017-04-23T07:37:14.143Z,959.94
2017-04-23T07:38:12.236Z,959.93
2017-04-23T07:39:12.219Z,959.94
2017-04-23T07:40:13.037Z,959.95
2017-04-23T07:41:11.192Z,959.95
2017-04-23T07:42:12.072Z,959.96
2017-04-23T07:43:12.085Z,959.92
2017-04-23T07:44:12.122Z,959.93
2017-04-23T07:45:12.954Z,959.90
2017-04-23T07:46:12.394Z,959.90
2017-04-23T07:47:15.056Z,959.91
2017-04-23T07:48:13.819Z,959.93
2017-04-23T07:49:12.008Z,959.93
2017-04-23T07:50:13.840Z,959.95
2017-04-23T07:51:12.611Z,959.98
2017-04-23T07:52:11.471Z,959.92
2017-04-23T07:53:12.531Z,959.89
2017-04-23T07:54:13.373Z,959.94
2017-04-23T07:55:12.950Z,959.89
2017-04-23T07:56:12.193Z,959.95
2017-04-23T07:57:12.774Z,959.93
2017-04-23T07:58:12.410Z,959.90
2017-04-23T07:59:12.520Z,959.89
2017-04-23T08:00:13.326Z,959.92
2017-04-23T08:01:13.047Z,959.89
2017-04-23T08:02:10.848Z,959.86
2017-04-23T08:03:11.154Z,959.91
2017-04-23T08:04:13.888Z,959.89
2017-04-23T08:05:12.185Z,959.93
2017-04-23T08:06:12.409Z,959.89
2017-04-23T08:07:13.239Z,959.95
2017-04-23T08:08:12.218Z,959.88
2017-04-23T08:09:12.771Z,959.93
2017-04-23T08:10:11.896Z,959.95
2017-04-23T08:11:12.679Z,959.96
2017-04-23T08:12:12.900Z,959.89
2017-04-23T08:13:13.707Z,959.94
2017-04-23T08:14:11.743Z,959.93
2017-04-23T08:15:09.865Z,959.96
2017-04-23T08:16:12.608Z,960.01
2017-04-23T08:17:12.992Z,959.95
2017-04-23T08:18:12.084Z,959.99
2017-04-23T08:19:10.740Z,959.99
2017-04-23T08:20:13.022Z,959.97
2017-04-23T08:21:12.727Z,960.00
2017-04-23T08:22:11.771Z,959.99
2017-04-23T08:23:13.662Z,959.95
2017-04-23T08:24:13.427Z,959.94
2017-04-23T08:25:13.191Z,959.96
2017-04-23T08:26:12.779Z,959.98
2017-04-23T08:27:11.928Z,959.92
2017-04-23T08:28:12.210Z,959.91
2017-04-23T08:29:10.955Z,959.91
2017-04-23T08:30:12.269Z,959.90
2017-04-23T08:31:14.788Z,959.90
2017-04-23T08:32:13.404Z,959.90
2017-04-23T08:33:12.498Z,959.89
2017-04-23T08:34:13.789Z,959.84
2017-04-23T08:35:11.806Z,959.87
2017-04-23T08:36:13.726Z,959.83
2017-04-23T08:37:11.891Z,959.86
2017-04-23T08:38:12.867Z,959.82
2017-04-23T08:39:12.037Z,959.83
2017-04-23T08:40:11.015Z,959.82
2017-04-23T08:41:12.955Z,959.81
2017-04-23T08:42:12.950Z,959.86
2017-04-23T08:43:11.891Z,959.90
2017-04-23T08:44:10.760Z,959.81
2017-04-23T08:45:12.825Z,959.86
2017-04-23T08:46:12.341Z,959.85
2017-04-23T08:47:13.066Z,959.88
2017-04-23T08:48:12.202Z,959.87
2017-04-23T08:49:12.222Z,959.88
2017-04-23T08:50:12.996Z,959.88
2017-04-23T08:51:12.650Z,959.85
2017-04-23T08:52:12.810Z,959.86
2017-04-23T08:53:12.366Z,959.86
2017-04-23T08:54:11.036Z,959.88
2017-04-23T08:55:13.100Z,959.91
2017-04-23T08:56:11.049Z,959.88
2017-04-23T08:57:12.740Z,959.84
2017-04-23T08:58:12.793Z,959.84
2017-04-23T08:59:10.005Z,959.84
2017-04-23T09:00:12.404Z,959.85
2017-04-23T09:01:11.251Z,959.88
2017-04-23T09:02:13.299Z,959.85
2017-04-23T09:03:09.942Z,959.88
2017-04-23T09:04:13.703Z,959.88
2017-04-23T09:05:12.842Z,959.85
2017-04-23T09:06:12.775Z,959.83
2017-04-23T09:07:11.678Z,959.80
2017-04-23T09:08:11.468Z,959.83
2017-04-23T09:09:13.033Z,959.80
2017-04-23T09:10:12.219Z,959.80
2017-04-23T09:11:13.219Z,959.78
2017-04-23T09:12:12.918Z,959.81
2017-04-23T09:13:13.385Z,959.80
2017-04-23T09:14:12.556Z,959.77
2017-04-23T09:15:13.579Z,959.79
2017-04-23T09:16:12.741Z,959.80
2017-04-23T09:17:12.613Z,959.82
2017-04-23T09:18:12.795Z,959.79
2017-04-23T09:19:12.284Z,959.80
2017-04-23T09:20:14.069Z,959.79
2017-04-23T09:21:12.330Z,959.84
2017-04-23T09:22:11.438Z,959.84
2017-04-23T09:23:12.494Z,959.86
2017-04-23T09:24:14.026Z,959.90
2017-04-23T09:25:12.460Z,959.91
2017-04-23T09:26:12.995Z,959.88
2017-04-23T09:27:10.858Z,959.84
2017-04-23T09:28:12.063Z,959.83
2017-04-23T09:29:12.874Z,959.85
2017-04-23T09:30:12.581Z,959.90
2017-04-23T09:31:12.659Z,959.87
2017-04-23T09:32:14.373Z,959.89
2017-04-23T09:33:12.775Z,959.89
2017-04-23T09:34:10.823Z,959.92
2017-04-23T09:35:13.652Z,959.94
2017-04-23T09:36:13.188Z,959.90
2017-04-23T09:37:13.243Z,959.94
2017-04-23T09:38:12.394Z,959.96
2017-04-23T09:39:10.518Z,959.94
2017-04-23T09:40:12.414Z,959.92
2017-04-23T09:41:12.445Z,959.94
2017-04-23T09:42:12.462Z,959.98
2017-04-23T09:43:13.142Z,960.00
2017-04-23T09:44:11.301Z,960.01
2017-04-23T09:45:12.986Z,960.02
2017-04-23T09:46:11.972Z,960.03
2017-04-23T09:47:12.853Z,960.06
2017-04-23T09:48:14.569Z,960.05
2017-04-23T09:49:12.900Z,960.06
2017-04-23T09:50:12.663Z,960.07
2017-04-23T09:51:13.326Z,960.07
2017-04-23T09:52:12.393Z,960.05
2017-04-23T09:53:12.966Z,960.08
2017-04-23T09:54:11.939Z,960.07
2017-04-23T09:55:13.014Z,960.08
2017-04-23T09:56:13.039Z,960.06
2017-04-23T09:57:12.629Z,960.10
2017-04-23T09:58:12.623Z,960.08
2017-04-23T09:59:13.241Z,960.05
2017-04-23T10:00:13.065Z,960.08
2017-04-23T10:01:14.034Z,960.02
2017-04-23T10:02:12.835Z,960.04
2017-04-23T10:03:12.587Z,960.07
2017-04-23T10:04:12.568Z,960.09
2017-04-23T10:05:12.795Z,960.04
2017-04-23T10:06:13.579Z,960.03
2017-04-23T10:07:13.498Z,960.06
2017-04-23T10:08:14.120Z,960.05
2017-04-23T10:09:12.227Z,960.07
2017-04-23T10:10:11.702Z,960.09
2017-04-23T10:11:12.829Z,960.06
2017-04-23T10:12:11.869Z,960.09
2017-04-23T10:13:12.748Z,960.07
2017-04-23T10:14:22.864Z,960.09
2017-04-23T10:15:12.599Z,960.14
2017-04-23T10:16:13.247Z,960.11
2017-04-23T10:17:12.632Z,960.05
2017-04-23T10:18:14.635Z,960.08
2017-04-23T10:19:13.388Z,960.07
2017-04-23T10:20:12.474Z,960.06
2017-04-23T10:21:13.419Z,959.96
2017-04-23T10:22:12.419Z,960.00
2017-04-23T10:23:12.437Z,960.04
2017-04-23T10:24:11.735Z,960.02
2017-04-23T10:25:12.819Z,959.99
2017-04-23T10:26:17.612Z,960.00
2017-04-23T10:27:13.444Z,960.00
2017-04-23T10:28:13.064Z,959.99
2017-04-23T10:29:12.120Z,959.96
2017-04-23T10:30:14.667Z,959.99
2017-04-23T10:31:10.350Z,959.98
2017-04-23T10:32:13.925Z,959.99
2017-04-23T10:33:12.399Z,960.02
2017-04-23T10:34:13.380Z,960.02
2017-04-23T10:35:12.876Z,960.02
2017-04-23T10:36:11.795Z,960.04
2017-04-23T10:37:12.610Z,960.01
2017-04-23T10:38:13.325Z,960.04
2017-04-23T10:39:12.417Z,960.02
2017-04-23T10:40:12.620Z,960.05
2017-04-23T10:41:13.731Z,959.97
2017-04-23T10:42:13.467Z,959.96
2017-04-23T10:43:12.656Z,959.93
2017-04-23T10:44:13.496Z,959.94
2017-04-23T10:45:12.598Z,959.94
2017-04-23T10:46:13.327Z,959.95
2017-04-23T10:47:14.168Z,959.93
2017-04-23T10:48:09.528Z,959.90
2017-04-23T10:49:12.995Z,959.89
2017-04-23T10:50:12.812Z,959.90
2017-04-23T10:51:13.389Z,959.92
2017-04-23T10:52:13.024Z,959.91
2017-04-23T10:53:12.760Z,959.91
2017-04-23T10:54:13.895Z,959.89
2017-04-23T10:55:12.482Z,959.89
2017-04-23T10:56:13.085Z,959.85
2017-04-23T10:57:12.019Z,959.78
2017-04-23T10:58:12.130Z,959.79
2017-04-23T10:59:13.668Z,959.78
2017-04-23T11:00:12.815Z,959.81
2017-04-23T11:01:11.854Z,959.84
2017-04-23T11:02:12.003Z,959.76
2017-04-23T11:03:12.243Z,959.77
2017-04-23T11:04:12.801Z,959.75
2017-04-23T11:05:11.790Z,959.71
2017-04-23T11:06:11.748Z,959.70
2017-04-23T11:07:11.759Z,959.71
2017-04-23T11:08:11.786Z,959.73
2017-04-23T11:09:13.614Z,959.71
2017-04-23T11:10:13.002Z,959.68
2017-04-23T11:11:11.980Z,959.65
2017-04-23T11:12:12.366Z,959.68
2017-04-23T11:13:12.930Z,959.67
2017-04-23T11:14:11.969Z,959.65
2017-04-23T11:15:12.699Z,959.66
2017-04-23T11:16:14.375Z,959.62
2017-04-23T11:17:12.721Z,959.63
2017-04-23T11:18:12.835Z,959.65
2017-04-23T11:19:11.645Z,959.64
2017-04-23T11:20:15.190Z,959.69
2017-04-23T11:21:13.307Z,959.64
2017-04-23T11:22:12.439Z,959.66
2017-04-23T11:23:14.180Z,959.62
2017-04-23T11:24:12.192Z,959.60
2017-04-23T11:25:15.240Z,959.62
2017-04-23T11:26:12.764Z,959.61
2017-04-23T11:27:12.588Z,959.65
2017-04-23T11:28:14.618Z,959.60
2017-04-23T11:29:12.630Z,959.62
2017-04-23T11:30:10.530Z,959.60
2017-04-23T11:31:11.860Z,959.60
2017-04-23T11:32:12.027Z,959.56
2017-04-23T11:33:12.601Z,959.60
2017-04-23T11:34:12.706Z,959.61
2017-04-23T11:35:12.766Z,959.57
2017-04-23T11:36:11.751Z,959.63
2017-04-23T11:37:13.792Z,959.58
2017-04-23T11:38:12.581Z,959.63
2017-04-23T11:39:09.897Z,959.60
2017-04-23T11:40:12.072Z,959.60
2017-04-23T11:41:12.783Z,959.56
2017-04-23T11:42:11.789Z,959.60
2017-04-23T11:43:12.055Z,959.61
2017-04-23T11:44:13.933Z,959.60
2017-04-23T11:45:11.988Z,959.60
2017-04-23T11:46:11.163Z,959.58
2017-04-23T11:47:13.300Z,959.62
2017-04-23T11:48:12.293Z,959.64
2017-04-23T11:49:12.426Z,959.57
2017-04-23T11:50:12.445Z,959.62
2017-04-23T11:51:12.444Z,959.60
2017-04-23T11:52:12.420Z,959.62
2017-04-23T11:53:12.519Z,959.58
2017-04-23T11:54:13.288Z,959.58
2017-04-23T11:55:12.771Z,959.53
2017-04-23T11:56:11.786Z,959.57
2017-04-23T11:57:11.883Z,959.59
2017-04-23T11:58:13.671Z,959.62
2017-04-23T11:59:13.371Z,959.57
2017-04-23T12:00:13.968Z,959.56
2017-04-23T12:01:12.011Z,959.57
2017-04-23T12:02:11.861Z,959.54
2017-04-23T12:03:12.011Z,959.52
2017-04-23T12:04:12.048Z,959.52
2017-04-23T12:05:12.221Z,959.46
2017-04-23T12:06:12.743Z,959.49
2017-04-23T12:07:12.474Z,959.56
2017-04-23T12:08:12.992Z,959.49
2017-04-23T12:09:12.611Z,959.47
2017-04-23T12:10:13.103Z,959.50
2017-04-23T12:11:12.581Z,959.52
2017-04-23T12:12:14.937Z,959.56
2017-04-23T12:13:11.760Z,959.49
2017-04-23T12:14:13.122Z,959.54
2017-04-23T12:15:12.238Z,959.48
2017-04-23T12:16:12.979Z,959.53
2017-04-23T12:17:12.235Z,959.45
2017-04-23T12:18:11.283Z,959.45
2017-04-23T12:19:14.668Z,959.47
2017-04-23T12:20:11.545Z,959.45
2017-04-23T12:21:12.570Z,959.46
2017-04-23T12:22:12.576Z,959.47
2017-04-23T12:23:12.811Z,959.42
2017-04-23T12:24:11.930Z,959.41
2017-04-23T12:25:12.032Z,959.44
2017-04-23T12:26:12.358Z,959.34
2017-04-23T12:27:13.374Z,959.37
2017-04-23T12:28:13.010Z,959.37